Terminal Aerodrome Forecast
Issued by NWS Springfield, MO

Home | Current Version | Previous Version | Text Only | Print | Product List | Glossary On
Versions: 1 2 3 4 5 6 7 8 9 10 11 12 13 14 15 16 17 18 19 20 21 22 23 24 25 26
000
FTUS43 KSGF 232300
TAFSGF
TAF
KSGF 232332Z 2400/2424 30008KT P6SM SCT025 OVC040
      TEMPO 2400/2404 BKN025 OVC040
     FM240400 32007KT P6SM OVC020
     FM240900 31008KT 6SM BR OVC015
     FM241100 32008KT 4SM -DZ BR OVC008
     FM241400 31009KT 2SM -RASN BR OVC007
     FM241800 30011KT P6SM -DZ OVC015=

USA.gov is the U.S. government's official web portal to all federal, state and local government web resources and services.